Time;durP1;ratioP1;P1;durP2;ratioP2;P2;SDS_P1;SDS_P2;PMS_P1;PMS_P2;Temp;Humidity;BMP_temperature;BMP_pressure;BME280_temperature;BME280_humidity;BME280_pressure;Samples;Min_cycle;Max_cycle;Signal;HPM_P1;HPM_P2
2022/02/26 00:01:27;;;;;;;13.70;6.28;;;;;;;2.64;70.07;101727.61;1764516;81;21064;-82
2022/02/26 00:03:53;;;;;;;15.32;7.28;;;;;;;2.68;70.09;101732.27;1764288;81;21758;-81
2022/02/26 00:06:20;;;;;;;14.18;6.72;;;;;;;2.76;70.11;101739.69;1764331;81;21068;-81
2022/02/26 00:08:46;;;;;;;27.00;12.00;;;;;;;2.81;70.14;101747.03;1764520;81;21061;-81
2022/02/26 00:11:13;;;;;;;36.80;14.75;;;;;;;2.86;70.03;101752.58;1764367;81;21543;-81
2022/02/26 00:13:40;;;;;;;51.88;24.92;;;;;;;2.88;70.06;101753.59;1764590;81;21072;-81
2022/02/26 00:16:06;;;;;;;46.88;20.72;;;;;;;2.89;70.02;101755.37;1764556;81;21698;-81
2022/02/26 00:18:33;;;;;;;34.38;16.67;;;;;;;2.89;70.05;101753.70;1764394;81;22213;-81
2022/02/26 00:20:59;;;;;;;22.93;10.68;;;;;;;2.96;70.09;101755.44;1764530;81;21068;-81
2022/02/26 00:23:26;;;;;;;26.50;11.80;;;;;;;3.00;70.08;101760.06;1764323;81;21093;-81
2022/02/26 00:25:53;;;;;;;22.98;10.53;;;;;;;3.03;70.11;101758.99;1764373;81;21440;-82
2022/02/26 00:28:20;;;;;;;18.60;8.65;;;;;;;3.06;70.09;101753.98;1764306;81;21210;-82
2022/02/26 00:30:47;;;;;;;20.20;8.93;;;;;;;3.09;70.04;101759.42;1764348;81;21049;-82
2022/02/26 00:33:13;;;;;;;18.98;8.43;;;;;;;3.11;70.04;101759.13;1764278;81;21547;-81
2022/02/26 00:35:41;;;;;;;14.43;6.80;;;;;;;3.09;69.93;101760.31;1764474;80;21073;-81
2022/02/26 00:38:08;;;;;;;23.42;9.05;;;;;;;3.09;70.04;101760.72;1764619;81;21657;-81
2022/02/26 00:40:35;;;;;;;22.65;7.87;;;;;;;3.09;70.02;101760.72;1764884;81;21712;-81
2022/02/26 00:43:01;;;;;;;21.93;9.10;;;;;;;3.10;70.05;101763.44;1764902;81;21049;-81
2022/02/26 00:45:28;;;;;;;20.12;7.10;;;;;;;3.13;70.08;101770.95;1764786;81;21124;-81
2022/02/26 00:47:55;;;;;;;14.35;6.17;;;;;;;3.13;70.09;101771.84;1764702;81;21112;-82
2022/02/26 00:50:22;;;;;;;13.18;6.00;;;;;;;3.13;70.02;101775.75;1764313;81;21581;-82
2022/02/26 00:52:48;;;;;;;15.85;5.65;;;;;;;3.10;70.05;101786.85;1737217;81;21811;-80
2022/02/26 00:55:15;;;;;;;15.35;6.37;;;;;;;3.10;70.12;101786.85;1764401;81;21084;-81
2022/02/26 00:57:41;;;;;;;16.00;6.37;;;;;;;3.06;70.04;101793.00;1764667;81;21560;-83
2022/02/26 01:00:10;;;;;;;16.60;6.33;;;;;;;3.04;70.12;101806.30;1764494;81;21005;-81
2022/02/26 01:02:37;;;;;;;12.73;6.53;;;;;;;3.01;70.17;101821.30;1764594;81;21076;-81
2022/02/26 01:05:04;;;;;;;14.18;6.47;;;;;;;3.02;70.30;101826.09;1764870;81;21768;-81
2022/02/26 01:07:30;;;;;;;10.88;6.10;;;;;;;3.07;70.44;101841.66;1764417;81;21097;-81
2022/02/26 01:09:57;;;;;;;14.80;6.33;;;;;;;3.10;70.53;101844.08;1764197;81;21671;-81
2022/02/26 01:12:23;;;;;;;13.95;6.17;;;;;;;3.15;70.52;101849.60;1764499;81;21057;-81
2022/02/26 01:14:50;;;;;;;17.23;6.85;;;;;;;3.19;70.54;101850.36;1764521;81;21729;-80
2022/02/26 01:17:17;;;;;;;19.35;7.00;;;;;;;3.24;70.50;101850.27;1763969;81;21738;-81
2022/02/26 01:19:44;;;;;;;16.10;6.05;;;;;;;3.25;70.47;101855.10;1764001;81;21112;-81
2022/02/26 01:22:10;;;;;;;14.70;6.00;;;;;;;3.24;70.41;101856.77;1764478;81;21100;-81
2022/02/26 01:24:37;;;;;;;19.95;6.37;;;;;;;3.25;70.43;101862.91;1764584;81;21104;-81
2022/02/26 01:27:04;;;;;;;16.20;6.33;;;;;;;3.26;70.42;101863.40;1764707;81;21068;-81
2022/02/26 01:29:32;;;;;;;16.73;6.60;;;;;;;3.28;70.48;101865.70;1764603;81;21766;-81
2022/02/26 01:31:58;;;;;;;13.13;5.90;;;;;;;3.31;70.55;101870.74;1764324;81;21060;-81
2022/02/26 01:34:25;;;;;;;15.43;5.78;;;;;;;3.37;70.51;101874.59;1764289;81;21057;-81
2022/02/26 01:36:51;;;;;;;13.43;6.12;;;;;;;3.39;70.50;101883.41;1764472;81;21053;-81
2022/02/26 01:39:23;;;;;;;11.25;5.67;;;;;;;3.42;70.55;101887.14;1764499;81;21107;-81
2022/02/26 01:41:46;;;;;;;13.50;5.85;;;;;;;3.47;70.54;101884.85;1763875;81;21794;-81
2022/02/26 01:44:13;;;;;;;11.55;5.50;;;;;;;3.48;70.48;101892.77;1764519;81;21129;-82
2022/02/26 01:46:40;;;;;;;12.75;5.80;;;;;;;3.49;70.48;101896.27;1764532;81;21064;-82
2022/02/26 01:49:06;;;;;;;13.20;6.15;;;;;;;3.51;70.45;101902.53;1764613;81;21531;-81
2022/02/26 01:51:33;;;;;;;11.15;5.70;;;;;;;3.50;70.40;101903.30;1764453;81;21111;-80
2022/02/26 01:53:59;;;;;;;12.00;5.55;;;;;;;3.47;70.39;101900.47;1764133;81;22497;-80
2022/02/26 01:56:27;;;;;;;17.10;6.58;;;;;;;3.44;70.39;101904.17;1763822;81;39114;-81
2022/02/26 01:58:54;;;;;;;11.18;5.67;;;;;;;3.44;70.48;101909.38;1764090;81;21554;-81
2022/02/26 02:01:20;;;;;;;14.58;7.10;;;;;;;3.45;70.51;101903.36;1764518;81;21101;-81
2022/02/26 02:03:47;;;;;;;16.20;6.05;;;;;;;3.45;70.55;101908.20;1764349;81;21100;-81
2022/02/26 02:06:14;;;;;;;13.62;6.00;;;;;;;3.45;70.54;101916.00;1764428;81;23088;-82
2022/02/26 02:08:42;;;;;;;14.68;6.42;;;;;;;3.46;70.64;101916.90;1736623;81;21644;-82
2022/02/26 02:11:09;;;;;;;16.48;6.60;;;;;;;3.46;70.61;101919.09;1764498;81;21566;-82
2022/02/26 02:13:36;;;;;;;16.65;6.03;;;;;;;3.46;70.62;101923.00;1764093;81;21547;-81
2022/02/26 02:16:03;;;;;;;12.88;6.42;;;;;;;3.47;70.66;101925.20;1764455;81;21044;-82
2022/02/26 02:18:30;;;;;;;17.77;7.05;;;;;;;3.49;70.71;101925.84;1764334;81;22441;-82
2022/02/26 02:20:57;;;;;;;17.32;6.75;;;;;;;3.51;70.69;101927.26;1764321;81;21108;-82
2022/02/26 02:23:25;;;;;;;16.12;7.28;;;;;;;3.53;70.71;101929.57;1736304;81;21065;-82
2022/02/26 02:25:54;;;;;;;13.88;7.25;;;;;;;3.53;70.67;101928.27;1764581;81;21240;-82
2022/02/26 02:28:23;;;;;;;18.27;7.92;;;;;;;3.53;70.63;101928.27;1764753;81;21088;-81
2022/02/26 02:30:49;;;;;;;15.25;6.85;;;;;;;3.54;70.72;101929.16;1764764;81;21842;-82
2022/02/26 02:33:16;;;;;;;17.67;7.50;;;;;;;3.56;70.76;101935.38;1764710;81;21072;-82
2022/02/26 02:35:42;;;;;;;16.32;7.15;;;;;;;3.59;70.77;101932.61;1756550;80;21069;-82
2022/02/26 02:38:16;;;;;;;14.35;6.20;;;;;;;3.59;70.71;101935.62;1753411;81;21085;-82
2022/02/26 02:40:44;;;;;;;;;;;;;;;3.50;70.53;101936.73;1756157;81;21145;-82
2022/02/26 02:43:11;;;;;;;14.68;6.87;;;;;;;3.39;70.50;101932.45;1753433;81;21765;-82
2022/02/26 02:45:38;;;;;;;12.95;6.00;;;;;;;3.26;70.35;101933.66;1753078;81;21082;-82
2022/02/26 02:48:05;;;;;;;9.13;6.33;;;;;;;3.11;70.46;101938.63;1753220;81;21562;-82
2022/02/26 02:50:31;;;;;;;19.40;6.35;;;;;;;2.99;70.55;101944.24;1753192;81;21097;-82
2022/02/26 02:52:58;;;;;;;16.37;6.78;;;;;;;2.88;70.67;101942.13;1753208;81;21515;-82
2022/02/26 02:55:25;;;;;;;18.10;6.47;;;;;;;2.78;70.79;101939.23;1753112;81;21678;-82
2022/02/26 02:57:52;;;;;;;11.45;5.80;;;;;;;2.70;70.91;101941.63;1752895;81;21045;-82
2022/02/26 03:00:19;;;;;;;12.53;5.87;;;;;;;2.60;70.98;101949.13;1753117;81;21137;-82
2022/02/26 03:02:46;;;;;;;14.35;6.30;;;;;;;2.53;71.13;101954.27;1753308;81;21094;-82
2022/02/26 03:05:12;;;;;;;12.95;5.75;;;;;;;2.44;71.21;101953.56;1753366;81;21081;-82
2022/02/26 03:07:39;;;;;;;14.55;6.30;;;;;;;2.38;71.31;101959.97;1753256;81;22565;-82
2022/02/26 03:10:06;;;;;;;10.65;5.72;;;;;;;2.29;71.37;101970.17;1753223;81;21081;-82
2022/02/26 03:12:33;;;;;;;11.78;6.33;;;;;;;2.21;71.45;101974.24;1753118;81;21128;-82
2022/02/26 03:14:59;;;;;;;10.93;5.78;;;;;;;2.11;71.60;101978.72;1753192;81;21531;-81
2022/02/26 03:17:26;;;;;;;13.25;6.03;;;;;;;2.05;71.71;101979.54;1753030;81;21116;-82
2022/02/26 03:19:52;;;;;;;17.02;6.10;;;;;;;1.97;71.74;101984.90;1753099;81;21743;-82
2022/02/26 03:22:19;;;;;;;11.43;5.87;;;;;;;1.88;71.89;101991.19;1753052;81;21088;-82
2022/02/26 03:24:46;;;;;;;15.20;6.35;;;;;;;1.81;71.96;102002.26;1753139;81;21117;-82
2022/02/26 03:27:12;;;;;;;18.05;6.37;;;;;;;1.75;72.03;102007.86;1753300;81;21132;-82
2022/02/26 03:29:39;;;;;;;11.35;6.12;;;;;;;1.69;72.17;102011.23;1753226;81;21069;-82
2022/02/26 03:32:06;;;;;;;13.15;6.55;;;;;;;1.63;72.24;102017.23;1753442;81;21757;-82
2022/02/26 03:34:33;;;;;;;11.68;6.72;;;;;;;1.58;72.41;102027.63;1754264;81;21069;-83
2022/02/26 03:37:00;;;;;;;14.03;7.17;;;;;;;1.55;72.53;102039.97;1764459;81;21080;-82
2022/02/26 03:39:31;;;;;;;11.68;6.17;;;;;;;1.50;72.50;102039.98;1764422;81;21515;-83
2022/02/26 03:42:03;;;;;;;11.85;6.45;;;;;;;1.44;72.57;102045.97;1764645;81;21017;-82
2022/02/26 03:44:30;;;;;;;13.45;6.95;;;;;;;1.36;72.52;102047.53;1764708;81;22269;-82
2022/02/26 03:46:57;;;;;;;12.40;6.22;;;;;;;1.29;72.64;102051.69;1764482;81;21550;-81
2022/02/26 03:49:24;;;;;;;13.30;6.60;;;;;;;1.23;72.61;102058.08;1764598;81;21077;-81
2022/02/26 03:51:51;;;;;;;14.70;6.90;;;;;;;1.17;72.75;102059.77;1764541;81;21124;-81
2022/02/26 03:54:17;;;;;;;15.93;6.33;;;;;;;1.13;72.90;102054.70;1764630;81;21542;-81
2022/02/26 03:56:44;;;;;;;12.13;6.20;;;;;;;1.10;72.87;102070.39;1764887;81;21671;-82
2022/02/26 03:59:11;;;;;;;13.68;7.10;;;;;;;1.03;72.97;102075.44;1764802;81;21045;-81
2022/02/26 04:01:37;;;;;;;10.20;5.85;;;;;;;0.97;73.04;102074.53;1764703;81;21056;-81
2022/02/26 04:04:04;;;;;;;11.97;6.42;;;;;;;0.93;73.10;102082.83;1764942;81;21017;-81
2022/02/26 04:06:30;;;;;;;11.95;6.47;;;;;;;0.88;73.08;102082.86;1764586;81;21072;-82
2022/02/26 04:08:57;;;;;;;10.75;6.17;;;;;;;0.81;73.17;102084.40;1764647;81;22590;-81
2022/02/26 04:11:24;;;;;;;12.95;6.78;;;;;;;0.76;73.21;102090.86;1764338;81;21526;-81
2022/02/26 04:13:50;;;;;;;12.15;6.45;;;;;;;0.70;73.37;102088.66;1764662;81;21080;-81
2022/02/26 04:16:17;;;;;;;8.95;5.87;;;;;;;0.66;73.54;102094.35;1764731;81;21089;-81
2022/02/26 04:18:44;;;;;;;12.55;6.45;;;;;;;0.64;73.65;102101.09;1764383;81;21068;-81
2022/02/26 04:21:10;;;;;;;11.80;6.72;;;;;;;0.63;73.68;102100.55;1764571;81;22582;-81
2022/02/26 04:23:37;;;;;;;17.10;6.75;;;;;;;0.63;73.88;102106.13;1764435;81;21559;-81
2022/02/26 04:26:04;;;;;;;14.58;7.15;;;;;;;0.64;73.93;102113.11;1764822;81;21034;-81
2022/02/26 04:28:30;;;;;;;14.33;6.55;;;;;;;0.63;73.96;102115.20;1764929;81;21165;-81
2022/02/26 04:30:57;;;;;;;13.50;7.60;;;;;;;0.60;74.02;102118.81;1765121;81;21101;-81
2022/02/26 04:33:23;;;;;;;15.48;7.17;;;;;;;0.58;74.01;102122.56;1764968;81;21776;-81
2022/02/26 04:35:50;;;;;;;18.37;9.08;;;;;;;0.54;74.00;102129.16;1764481;81;21102;-81
2022/02/26 04:38:17;;;;;;;16.42;9.80;;;;;;;0.50;74.14;102127.47;1764150;81;21061;-81
2022/02/26 04:40:43;;;;;;;29.37;11.57;;;;;;;0.48;74.16;102131.61;1764288;81;21571;-81
2022/02/26 04:43:10;;;;;;;29.30;12.75;;;;;;;0.46;74.24;102140.54;1764454;81;21072;-81
2022/02/26 04:45:37;;;;;;;79.15;27.62;;;;;;;0.45;74.33;102143.92;1764283;81;21750;-81
2022/02/26 04:48:04;;;;;;;36.98;15.43;;;;;;;0.47;74.51;102147.91;1764390;81;21192;-82
2022/02/26 04:50:30;;;;;;;29.00;13.40;;;;;;;0.49;74.55;102147.66;1764194;81;21116;-82
2022/02/26 04:52:57;;;;;;;27.13;11.57;;;;;;;0.50;74.55;102144.31;1764297;81;21041;-81
2022/02/26 04:55:23;;;;;;;30.23;14.00;;;;;;;0.50;74.54;102154.28;1764121;81;21108;-82
2022/02/26 04:57:50;;;;;;;24.98;11.35;;;;;;;0.51;74.56;102156.50;1764261;81;21772;-81
2022/02/26 05:00:17;;;;;;;25.85;11.20;;;;;;;0.51;74.67;102165.17;1764355;81;21002;-81
2022/02/26 05:02:44;;;;;;;33.15;13.10;;;;;;;0.54;74.80;102168.02;1764392;81;21084;-81
2022/02/26 05:05:10;;;;;;;22.93;11.08;;;;;;;0.60;74.90;102171.53;1764545;81;21124;-81
2022/02/26 05:07:37;;;;;;;30.08;13.58;;;;;;;0.66;75.01;102169.90;1764511;81;21044;-81
2022/02/26 05:10:04;;;;;;;15.90;8.83;;;;;;;0.71;75.01;102176.37;1764537;81;21765;-81
2022/02/26 05:12:31;;;;;;;15.20;9.23;;;;;;;0.75;74.99;102177.16;1764141;81;21053;-80
2022/02/26 05:14:57;;;;;;;13.20;8.93;;;;;;;0.77;74.97;102180.42;1764305;81;21002;-81
2022/02/26 05:17:24;;;;;;;14.78;9.10;;;;;;;0.80;74.98;102182.36;1764400;81;21514;-81
2022/02/26 05:19:50;;;;;;;17.32;9.48;;;;;;;0.80;74.86;102196.61;1764494;81;21053;-81
2022/02/26 05:22:17;;;;;;;17.35;9.58;;;;;;;0.82;75.02;102211.01;1772580;80;21692;-81
2022/02/26 05:24:44;;;;;;;21.52;9.90;;;;;;;0.84;75.12;102214.64;1786022;80;21158;-81
2022/02/26 05:27:11;;;;;;;19.73;12.07;;;;;;;0.86;75.17;102219.57;1775075;80;21551;-81
2022/02/26 05:29:37;;;;;;;23.22;14.30;;;;;;;0.90;75.23;102228.12;1743154;82;21077;-81
2022/02/26 05:32:05;;;;;;;20.32;13.18;;;;;;;0.94;75.24;102234.13;1741442;82;21532;-83
2022/02/26 05:34:32;;;;;;;19.55;12.35;;;;;;;0.95;75.18;102234.23;1743051;82;21772;-82
2022/02/26 05:36:58;;;;;;;20.02;10.08;;;;;;;0.94;75.18;102240.22;1742779;82;21141;-81
2022/02/26 05:39:25;;;;;;;19.20;9.50;;;;;;;0.95;75.17;102252.78;1742875;82;21543;-81
2022/02/26 05:41:52;;;;;;;13.83;8.75;;;;;;;0.98;75.21;102263.44;1743200;82;21057;-81
2022/02/26 05:44:18;;;;;;;16.60;8.23;;;;;;;1.01;75.26;102265.38;1743331;80;21128;-82
2022/02/26 05:46:45;;;;;;;13.88;7.10;;;;;;;1.06;75.37;102268.89;1747362;81;22590;-81
2022/02/26 05:49:12;;;;;;;18.65;8.68;;;;;;;1.14;75.43;102284.73;1747956;82;21057;-81
2022/02/26 05:51:38;;;;;;;14.47;8.58;;;;;;;1.23;75.45;102282.44;1747790;82;21600;-81
2022/02/26 05:54:05;;;;;;;12.50;7.60;;;;;;;1.29;75.41;102290.34;1748010;82;21272;-81
2022/02/26 05:56:31;;;;;;;13.18;7.33;;;;;;;1.36;75.40;102294.39;1748014;82;21038;-81
2022/02/26 05:58:58;;;;;;;14.43;7.67;;;;;;;1.44;75.39;102302.44;1747947;82;22267;-81
2022/02/26 06:01:25;;;;;;;13.40;7.55;;;;;;;1.53;75.41;102304.54;1747688;82;21152;-81
2022/02/26 06:03:51;;;;;;;12.30;7.75;;;;;;;1.61;75.36;102305.20;1747768;82;21021;-82
2022/02/26 06:06:18;;;;;;;13.22;7.92;;;;;;;1.69;75.34;102317.53;1745445;80;21089;-80
2022/02/26 06:08:45;;;;;;;15.10;8.00;;;;;;;1.76;75.28;102327.67;1742688;82;21086;-81
2022/02/26 06:11:11;;;;;;;14.70;8.48;;;;;;;1.85;75.29;102329.75;1743042;82;21760;-80
2022/02/26 06:13:38;;;;;;;13.00;7.67;;;;;;;1.89;75.19;102330.53;1742847;82;21113;-81
2022/02/26 06:16:05;;;;;;;15.90;8.75;;;;;;;1.96;75.18;102329.38;1743296;82;21160;-81
2022/02/26 06:18:32;;;;;;;14.98;8.63;;;;;;;2.02;75.16;102333.79;1742893;82;21065;-81
2022/02/26 06:20:58;;;;;;;15.35;9.38;;;;;;;2.10;75.09;102346.13;1743175;82;21303;-81
2022/02/26 06:23:25;;;;;;;18.05;9.60;;;;;;;2.16;75.10;102348.33;1743133;82;21762;-81
2022/02/26 06:25:51;;;;;;;20.97;9.60;;;;;;;2.23;75.08;102345.47;1743191;82;21077;-80
2022/02/26 06:28:18;;;;;;;17.00;9.93;;;;;;;2.28;74.96;102346.78;1742983;82;21081;-81
2022/02/26 06:30:45;;;;;;;18.67;10.40;;;;;;;2.36;74.99;102357.81;1742991;82;21046;-80
2022/02/26 06:33:13;;;;;;;15.35;8.43;;;;;;;2.42;75.00;102347.92;1742849;82;21042;-80
2022/02/26 06:35:42;;;;;;;15.55;8.45;;;;;;;2.50;75.08;102352.98;1742667;81;21709;-80
2022/02/26 06:38:08;;;;;;;11.18;7.80;;;;;;;2.62;75.27;102356.98;1742655;82;21007;-80
2022/02/26 06:40:35;;;;;;;13.85;7.95;;;;;;;2.72;75.33;102359.59;1742560;82;21097;-80
2022/02/26 06:43:01;;;;;;;15.05;8.28;;;;;;;2.82;75.34;102359.05;1743010;82;21052;-81
2022/02/26 06:45:28;;;;;;;15.18;9.00;;;;;;;2.91;75.32;102361.10;1743307;82;21105;-81
2022/02/26 06:47:55;;;;;;;20.27;9.70;;;;;;;3.01;75.36;102375.36;1743239;82;21691;-81
2022/02/26 06:50:21;;;;;;;15.43;10.10;;;;;;;3.08;75.19;102365.97;1743115;82;20995;-81
2022/02/26 06:52:48;;;;;;;15.23;9.90;;;;;;;3.20;75.30;102369.95;1743023;82;22246;-81
2022/02/26 06:55:14;;;;;;;16.20;8.48;;;;;;;3.35;75.28;102378.48;1743067;82;21162;-81
2022/02/26 06:57:42;;;;;;;13.72;8.58;;;;;;;3.44;75.08;102419.17;1742950;82;21057;-81
2022/02/26 07:00:10;;;;;;;19.17;9.58;;;;;;;3.48;74.92;102422.94;1742952;82;21189;-81
2022/02/26 07:02:37;;;;;;;15.20;9.48;;;;;;;3.50;74.92;102413.55;1742909;82;21742;-81
2022/02/26 07:05:05;;;;;;;12.90;8.85;;;;;;;3.56;74.99;102416.63;1743155;82;21062;-81
2022/02/26 07:07:31;;;;;;;15.25;9.43;;;;;;;3.68;74.89;102427.14;1742993;82;21055;-81
2022/02/26 07:09:58;;;;;;;14.58;8.90;;;;;;;3.79;74.94;102430.58;1743231;82;21096;-81
2022/02/26 07:12:25;;;;;;;21.02;9.70;;;;;;;3.91;74.94;102431.97;1743150;82;21742;-81
2022/02/26 07:14:51;;;;;;;20.55;9.88;;;;;;;4.00;74.76;102445.31;1743164;82;21325;-80
2022/02/26 07:17:18;;;;;;;17.10;10.00;;;;;;;4.07;74.66;102445.02;1743109;82;21722;-81
2022/02/26 07:19:45;;;;;;;20.72;11.03;;;;;;;4.10;74.67;102433.91;1743274;82;21165;-81
2022/02/26 07:22:12;;;;;;;18.77;10.80;;;;;;;4.26;74.58;102445.12;1743104;82;21034;-81
2022/02/26 07:24:39;;;;;;;19.50;11.35;;;;;;;4.34;74.45;102447.95;1743123;82;22441;-81
2022/02/26 07:27:05;;;;;;;20.35;11.03;;;;;;;4.46;74.45;102449.28;1743448;82;21069;-81
2022/02/26 07:29:32;;;;;;;19.15;10.90;;;;;;;4.52;74.22;102454.95;1743234;82;21053;-81
2022/02/26 07:31:59;;;;;;;20.77;10.60;;;;;;;4.58;74.26;102450.61;1743246;82;21630;-81
2022/02/26 07:34:25;;;;;;;16.40;10.30;;;;;;;4.66;74.24;102449.11;1743182;82;21117;-81
2022/02/26 07:36:52;;;;;;;19.37;9.95;;;;;;;4.63;74.13;102431.91;1740252;81;22600;-81
2022/02/26 07:39:19;;;;;;;21.05;10.20;;;;;;;4.86;74.15;102451.00;1740673;82;21595;-81
2022/02/26 07:41:45;;;;;;;15.95;9.78;;;;;;;4.98;74.04;102444.11;1741007;82;21076;-81
2022/02/26 07:44:12;;;;;;;18.20;10.65;;;;;;;5.12;74.03;102458.58;1740913;82;21081;-81
2022/02/26 07:46:39;;;;;;;18.32;11.03;;;;;;;5.25;73.83;102468.77;1741058;82;21190;-82
2022/02/26 07:49:06;;;;;;;20.72;11.12;;;;;;;5.36;73.71;102467.33;1741010;82;22545;-82
2022/02/26 07:51:32;;;;;;;18.05;11.03;;;;;;;5.47;73.53;102472.94;1740813;82;21057;-81
2022/02/26 07:53:59;;;;;;;21.60;10.60;;;;;;;5.58;73.43;102477.66;1740860;82;21706;-82
2022/02/26 07:56:25;;;;;;;18.07;11.05;;;;;;;5.61;73.17;102484.01;1740914;82;21042;-81
2022/02/26 07:58:54;;;;;;;17.85;10.90;;;;;;;5.66;73.18;102485.63;1741062;82;21282;-81
2022/02/26 08:01:20;;;;;;;17.00;10.82;;;;;;;5.74;73.04;102490.11;1741149;82;21800;-81
2022/02/26 08:03:48;;;;;;;19.35;11.38;;;;;;;5.81;73.03;102495.88;1740913;82;21117;-81
2022/02/26 08:06:14;;;;;;;21.05;13.08;;;;;;;5.83;72.77;102499.92;1741137;82;21070;-80
2022/02/26 08:08:41;;;;;;;22.32;13.40;;;;;;;5.89;72.81;102503.38;1741130;82;21607;-81
2022/02/26 08:11:07;;;;;;;22.25;11.88;;;;;;;5.96;72.87;102503.95;1741423;82;20995;-82
2022/02/26 08:13:34;;;;;;;18.90;11.03;;;;;;;6.06;72.58;102519.89;1741163;82;22560;-81
2022/02/26 08:16:01;;;;;;;18.15;10.38;;;;;;;6.08;72.52;102516.09;1741152;82;21046;-81
2022/02/26 08:18:27;;;;;;;18.57;10.30;;;;;;;6.10;72.43;102521.02;1741335;82;21047;-81
2022/02/26 08:20:54;;;;;;;19.15;10.70;;;;;;;6.15;72.40;102528.81;1741382;82;21604;-82
2022/02/26 08:23:21;;;;;;;18.50;9.63;;;;;;;6.25;72.41;102527.38;1741489;82;21086;-81
2022/02/26 08:25:47;;;;;;;17.73;10.03;;;;;;;6.37;72.41;102524.30;1741420;82;22591;-82
2022/02/26 08:28:14;;;;;;;17.98;10.15;;;;;;;6.51;72.29;102529.18;1741241;82;21038;-82
2022/02/26 08:30:40;;;;;;;14.63;9.25;;;;;;;6.61;72.14;102532.97;1741228;82;21085;-81
2022/02/26 08:33:07;;;;;;;15.15;10.28;;;;;;;6.73;72.07;102538.13;1740926;82;21527;-81
2022/02/26 08:35:34;;;;;;;17.98;10.23;;;;;;;6.86;72.00;102540.30;1740881;82;21061;-82
2022/02/26 08:38:00;;;;;;;14.07;9.05;;;;;;;6.94;71.78;102545.65;1749546;81;21846;-81
2022/02/26 08:40:27;;;;;;;18.17;9.23;;;;;;;7.04;71.64;102552.04;1751343;81;21064;-82
2022/02/26 08:42:54;;;;;;;15.15;9.03;;;;;;;7.12;71.43;102553.45;1751699;81;21038;-81
2022/02/26 08:45:20;;;;;;;17.80;9.48;;;;;;;7.21;71.25;102554.50;1751458;81;21098;-81
2022/02/26 08:47:47;;;;;;;24.82;11.73;;;;;;;7.22;70.78;102570.70;1751400;81;21515;-81
2022/02/26 08:50:16;;;;;;;24.90;10.63;;;;;;;7.16;70.59;102565.95;1751447;81;22589;-81
2022/02/26 08:52:42;;;;;;;18.92;11.20;;;;;;;7.23;70.74;102576.45;1751371;81;21406;-81
2022/02/26 08:55:09;;;;;;;16.05;9.35;;;;;;;7.34;70.64;102585.05;1751577;81;21124;-81
2022/02/26 08:57:36;;;;;;;18.27;9.08;;;;;;;7.45;70.53;102593.23;1751684;81;21077;-81
2022/02/26 09:00:05;;;;;;;18.52;9.85;;;;;;;7.43;70.16;102594.80;1751949;81;21081;-82
2022/02/26 09:02:32;;;;;;;19.67;8.90;;;;;;;7.43;70.08;102587.36;1751647;81;21782;-81
2022/02/26 09:04:58;;;;;;;14.43;9.13;;;;;;;7.49;69.90;102596.55;1751718;81;21156;-82
2022/02/26 09:07:25;;;;;;;18.42;9.55;;;;;;;7.54;70.04;102584.64;1751703;81;21052;-82
2022/02/26 09:09:51;;;;;;;16.70;8.98;;;;;;;7.71;69.96;102594.94;1751793;81;21121;-82
2022/02/26 09:12:18;;;;;;;17.82;8.78;;;;;;;7.82;69.74;102602.20;1751748;81;21034;-81
2022/02/26 09:14:45;;;;;;;16.35;8.65;;;;;;;7.90;69.56;102604.02;1751687;81;22534;-82
2022/02/26 09:17:11;;;;;;;14.90;7.72;;;;;;;7.86;68.81;102610.77;1751730;81;21722;-82
2022/02/26 09:19:38;;;;;;;16.30;9.60;;;;;;;7.78;68.85;102615.52;1751761;81;21105;-82
2022/02/26 09:22:05;;;;;;;15.80;8.93;;;;;;;7.77;69.02;102622.89;1751945;81;21054;-82
2022/02/26 09:24:35;;;;;;;14.60;9.43;;;;;;;7.78;68.88;102626.41;1751687;81;21109;-81
2022/02/26 09:27:02;;;;;;;15.65;9.40;;;;;;;7.70;68.60;102627.63;1751852;81;21781;-82
2022/02/26 09:29:28;;;;;;;17.70;10.43;;;;;;;7.67;68.84;102632.23;1751612;81;21066;-81
2022/02/26 09:31:55;;;;;;;16.62;9.68;;;;;;;7.64;68.70;102636.37;1751836;81;21073;-82
2022/02/26 09:34:22;;;;;;;15.50;9.78;;;;;;;7.66;68.88;102647.48;1751712;81;21112;-82
2022/02/26 09:36:50;;;;;;;16.07;9.53;;;;;;;7.71;68.98;102655.64;1750500;81;21085;-82
2022/02/26 09:39:18;;;;;;;15.75;10.45;;;;;;;7.76;68.88;102655.55;1745803;82;21769;-82
2022/02/26 09:41:48;;;;;;;19.25;9.90;;;;;;;7.87;68.97;102658.48;1745952;82;21065;-81
2022/02/26 09:44:15;;;;;;;13.38;9.43;;;;;;;7.92;68.75;102658.78;1746019;82;21576;-82
2022/02/26 09:46:43;;;;;;;16.57;9.63;;;;;;;7.94;68.82;102659.41;1746043;82;21612;-82
2022/02/26 09:49:09;;;;;;;14.00;8.53;;;;;;;8.07;68.87;102664.13;1746205;82;21587;-82
2022/02/26 09:51:41;;;;;;;16.17;9.48;;;;;;;8.11;68.48;102668.80;1745969;82;21752;-81
2022/02/26 09:54:08;;;;;;;16.50;9.28;;;;;;;8.08;68.34;102674.73;1746176;82;21085;-81
2022/02/26 09:56:36;;;;;;;18.62;9.60;;;;;;;8.11;68.67;102680.19;1745972;82;21093;-82
2022/02/26 09:59:03;;;;;;;17.40;9.95;;;;;;;8.08;68.28;102687.84;1745898;82;21639;-81
2022/02/26 10:01:30;;;;;;;16.05;9.15;;;;;;;8.10;68.48;102684.02;1745955;82;22271;-81
2022/02/26 10:04:11;;;;;;;17.70;10.85;;;;;;;8.10;68.30;102684.91;1746173;82;21968;-81
2022/02/26 10:06:37;;;;;;;20.02;10.82;;;;;;;8.06;68.20;102687.25;1746003;82;21128;-81
2022/02/26 10:09:08;;;;;;;19.73;9.85;;;;;;;8.02;68.16;102700.56;1746017;82;21109;-81
2022/02/26 10:11:37;;;;;;;17.05;10.05;;;;;;;7.93;68.15;102700.84;1745827;82;21086;-82
2022/02/26 10:14:13;;;;;;;16.32;9.45;;;;;;;7.98;68.14;102706.41;1746057;82;21093;-82
2022/02/26 10:16:55;;;;;;;18.07;11.75;;;;;;;7.93;68.13;102706.50;1745743;82;21640;-82
2022/02/26 10:19:31;;;;;;;17.57;10.45;;;;;;;7.93;68.13;102707.81;1746156;82;21010;-80
2022/02/26 10:22:06;;;;;;;19.32;9.53;;;;;;;7.97;68.18;102712.03;1746371;82;21525;-82
2022/02/26 10:24:33;;;;;;;18.10;9.43;;;;;;;8.00;68.29;102711.77;1745736;82;21638;-82
2022/02/26 10:27:06;;;;;;;20.15;10.82;;;;;;;8.09;68.27;102715.91;1746301;82;21053;-82
2022/02/26 10:29:37;;;;;;;14.60;8.60;;;;;;;8.14;68.17;102720.12;1746316;82;22509;-82
2022/02/26 10:32:05;;;;;;;13.88;8.95;;;;;;;8.21;68.20;102713.59;1745894;82;21784;-82
2022/02/26 10:34:42;;;;;;;16.87;9.75;;;;;;;8.22;67.80;102725.50;1745776;82;21104;-82
2022/02/26 10:37:14;;;;;;;19.25;9.15;;;;;;;8.15;67.72;102727.20;1745210;81;21579;-81
2022/02/26 10:39:54;;;;;;;14.57;8.10;;;;;;;8.08;67.66;102731.53;1743051;82;21069;-82
2022/02/26 10:42:24;;;;;;;16.37;8.35;;;;;;;8.03;67.58;102732.52;1742566;82;21834;-81
2022/02/26 10:45:22;;;;;;;14.43;7.85;;;;;;;8.09;67.78;102734.27;1741885;82;21261;-82
2022/02/26 10:47:44;;;;;;;17.03;8.63;;;;;;;8.16;67.63;102738.19;1742458;82;21085;-82
2022/02/26 10:50:22;;;;;;;15.98;8.13;;;;;;;8.24;67.83;102737.00;1743159;82;21193;-82
2022/02/26 10:53:03;;;;;;;14.95;7.33;;;;;;;8.46;67.90;102740.64;1743003;82;21081;-82
2022/02/26 10:55:57;;;;;;;16.20;8.00;;;;;;;8.60;67.36;102740.67;1743202;82;21760;-81
2022/02/26 10:58:24;;;;;;;13.45;7.50;;;;;;;8.72;67.24;102741.44;1743129;82;21062;-82
2022/02/26 11:00:52;;;;;;;15.30;7.00;;;;;;;8.84;67.37;102746.19;1743495;82;21117;-82
2022/02/26 11:03:21;;;;;;;14.47;6.42;;;;;;;8.96;66.97;102742.11;1743329;82;21053;-81
2022/02/26 11:05:47;;;;;;;13.38;6.35;;;;;;;8.92;66.35;102742.31;1743308;82;21066;-82
2022/02/26 11:08:15;;;;;;;15.40;6.03;;;;;;;8.88;66.30;102744.25;1743454;82;22568;-82
2022/02/26 11:10:43;;;;;;;12.85;6.33;;;;;;;8.91;66.53;102744.84;1743167;82;21062;-82
2022/02/26 11:13:09;;;;;;;13.28;7.33;;;;;;;8.88;65.93;102742.94;1743400;82;21113;-81
2022/02/26 11:15:36;;;;;;;11.50;6.70;;;;;;;8.74;65.98;102747.28;1742992;82;21216;-82
2022/02/26 11:18:03;;;;;;;14.93;7.35;;;;;;;8.70;66.15;102741.34;1742968;82;21113;-81
2022/02/26 11:20:29;;;;;;;16.45;7.08;;;;;;;8.81;66.31;102752.95;1742342;82;21788;-82
2022/02/26 11:22:57;;;;;;;16.85;6.37;;;;;;;8.84;66.11;102762.31;1742691;82;21520;-81
2022/02/26 11:25:24;;;;;;;15.50;7.35;;;;;;;8.84;66.06;102755.75;1743121;82;21113;-82